createdAt,value
2022-09-11T00:01:18.460Z,71.59
2022-09-11T00:03:46.559Z,71.27
2022-09-11T00:06:28.482Z,71.02
2022-09-11T00:09:00.853Z,71.29
2022-09-11T00:11:33.543Z,71.37
2022-09-11T00:14:01.068Z,71.98
2022-09-11T00:16:37.762Z,72.01
2022-09-11T00:19:17.495Z,72.09
2022-09-11T00:21:45.624Z,71.91
2022-09-11T00:24:13.039Z,72.35
2022-09-11T00:26:41.177Z,72.52
2022-09-11T00:29:09.169Z,72.23
2022-09-11T00:31:36.590Z,71.63
2022-09-11T00:34:03.699Z,71.67
2022-09-11T00:36:31.694Z,72.19
2022-09-11T00:39:00.179Z,72.34
2022-09-11T00:41:34.417Z,72.23
2022-09-11T00:44:03.071Z,72.64
2022-09-11T00:46:34.493Z,73.02
2022-09-11T00:49:10.697Z,73.33
2022-09-11T00:51:38.560Z,73.32
2022-09-11T00:54:06.211Z,73.69
2022-09-11T00:56:37.603Z,73.96
2022-09-11T00:59:06.377Z,74.09
2022-09-11T01:01:33.765Z,73.75
2022-09-11T01:04:04.242Z,73.79
2022-09-11T01:06:32.693Z,73.44
2022-09-11T01:08:59.821Z,73.29
2022-09-11T01:11:41.720Z,73.33
2022-09-11T01:14:48.089Z,73.20
2022-09-11T01:17:50.366Z,73.46
2022-09-11T01:20:50.918Z,73.32
2022-09-11T01:23:29.906Z,73.10
2022-09-11T01:26:34.945Z,73.55
2022-09-11T01:29:09.439Z,72.96
2022-09-11T01:32:05.527Z,73.42
2022-09-11T01:34:42.447Z,74.41
2022-09-11T01:37:28.577Z,75.08
2022-09-11T01:40:05.497Z,74.70
2022-09-11T01:42:36.143Z,74.34
2022-09-11T01:45:05.791Z,74.88
2022-09-11T01:47:35.148Z,74.13
2022-09-11T01:50:04.852Z,74.76
2022-09-11T01:52:54.140Z,74.23
2022-09-11T01:55:26.159Z,74.53
2022-09-11T01:57:59.352Z,74.32
2022-09-11T02:00:28.972Z,74.50
2022-09-11T02:03:01.149Z,74.36
2022-09-11T02:05:39.646Z,74.58
2022-09-11T02:08:18.679Z,75.08
2022-09-11T02:10:56.102Z,74.50
2022-09-11T02:13:30.476Z,74.50
2022-09-11T02:16:15.104Z,74.37
2022-09-11T02:18:50.672Z,74.39
2022-09-11T02:21:17.733Z,75.24
2022-09-11T02:23:45.595Z,75.14
2022-09-11T02:26:16.623Z,74.93
2022-09-11T02:28:43.740Z,75.54
2022-09-11T02:31:11.143Z,74.97
2022-09-11T02:33:38.901Z,74.61
2022-09-11T02:36:09.164Z,74.33
2022-09-11T02:38:52.821Z,74.60
2022-09-11T02:41:37.622Z,74.10
2022-09-11T02:44:43.931Z,75.26
2022-09-11T02:47:28.494Z,75.20
2022-09-11T02:50:13.572Z,75.66
2022-09-11T02:53:06.544Z,75.57
2022-09-11T02:55:53.706Z,74.92
2022-09-11T02:58:40.183Z,75.27
2022-09-11T03:01:09.660Z,74.45
2022-09-11T03:03:45.811Z,75.57
2022-09-11T03:06:27.300Z,76.10
2022-09-11T03:08:54.451Z,75.18
2022-09-11T03:11:21.949Z,75.43
2022-09-11T03:13:50.309Z,74.70
2022-09-11T03:16:17.814Z,74.95
2022-09-11T03:18:45.212Z,74.79
2022-09-11T03:21:12.322Z,74.70
2022-09-11T03:23:39.660Z,74.56
2022-09-11T03:26:07.314Z,74.61
2022-09-11T03:28:35.348Z,74.99
2022-09-11T03:31:09.573Z,75.08
2022-09-11T03:33:37.558Z,74.84
2022-09-11T03:36:05.028Z,74.61
2022-09-11T03:38:33.060Z,74.50
2022-09-11T03:41:02.867Z,74.71
2022-09-11T03:43:32.084Z,74.39
2022-09-11T03:46:00.786Z,73.87
2022-09-11T03:48:29.321Z,73.58
2022-09-11T03:50:56.618Z,73.73
2022-09-11T03:53:23.659Z,73.72
2022-09-11T03:55:51.142Z,73.65
2022-09-11T03:58:21.676Z,73.82
2022-09-11T04:00:49.143Z,72.41
2022-09-11T04:03:16.555Z,71.80
2022-09-11T04:05:57.695Z,72.10
2022-09-11T04:08:24.887Z,71.80
2022-09-11T04:11:02.918Z,72.23
2022-09-11T04:13:34.807Z,72.18
2022-09-11T04:16:10.134Z,71.59
2022-09-11T04:18:42.647Z,70.51
2022-09-11T04:21:12.340Z,71.51
2022-09-11T04:23:40.240Z,70.70
2022-09-11T04:26:16.840Z,69.97
2022-09-11T04:28:47.484Z,69.81
2022-09-11T04:31:16.746Z,69.92
2022-09-11T04:33:45.039Z,70.69
2022-09-11T04:36:18.224Z,71.01
2022-09-11T04:38:47.049Z,70.30
2022-09-11T04:41:16.116Z,70.14
2022-09-11T04:43:43.811Z,70.43
2022-09-11T04:46:16.298Z,68.94
2022-09-11T04:48:51.710Z,70.45
2022-09-11T04:51:35.430Z,69.90
2022-09-11T04:54:03.887Z,69.70
2022-09-11T04:56:40.120Z,69.51
2022-09-11T04:59:20.151Z,69.31
2022-09-11T05:01:54.683Z,68.92
2022-09-11T05:04:26.223Z,68.77
2022-09-11T05:06:55.195Z,68.04
2022-09-11T05:09:22.496Z,68.06
2022-09-11T05:11:50.486Z,67.98
2022-09-11T05:14:18.484Z,67.54
2022-09-11T05:16:48.262Z,67.41
2022-09-11T05:19:17.558Z,67.22
2022-09-11T05:21:46.070Z,66.36
2022-09-11T05:24:14.820Z,65.70
2022-09-11T05:26:42.207Z,65.48
2022-09-11T05:29:15.072Z,65.55
2022-09-11T05:32:00.412Z,65.62
2022-09-11T05:34:29.961Z,64.20
2022-09-11T05:36:58.727Z,63.89
2022-09-11T05:39:30.109Z,64.62
2022-09-11T05:41:58.399Z,64.33
2022-09-11T05:44:31.058Z,63.68
2022-09-11T05:46:59.130Z,63.79
2022-09-11T05:49:26.446Z,64.04
2022-09-11T05:51:53.583Z,64.08
2022-09-11T05:54:20.667Z,63.90
2022-09-11T05:56:48.299Z,63.59
2022-09-11T05:59:22.829Z,62.74
2022-09-11T06:01:51.529Z,62.94
2022-09-11T06:04:28.201Z,61.72
2022-09-11T06:06:57.847Z,61.99
2022-09-11T06:09:25.021Z,61.74
2022-09-11T06:11:53.396Z,61.35
2022-09-11T06:14:21.581Z,61.72
2022-09-11T06:16:50.742Z,60.34
2022-09-11T06:19:18.079Z,59.07
2022-09-11T06:21:46.310Z,59.36
2022-09-11T06:24:36.859Z,57.75
2022-09-11T06:27:04.562Z,58.33
2022-09-11T06:29:33.957Z,58.27
2022-09-11T06:32:02.220Z,58.20
2022-09-11T06:34:31.923Z,58.05
2022-09-11T06:37:03.165Z,58.01
2022-09-11T06:39:31.823Z,57.06
2022-09-11T06:42:00.109Z,57.92
2022-09-11T06:44:31.289Z,57.40
2022-09-11T06:47:00.767Z,57.03
2022-09-11T06:49:28.154Z,57.05
2022-09-11T06:52:13.535Z,57.32
2022-09-11T06:54:45.815Z,57.17
2022-09-11T06:57:15.506Z,56.36
2022-09-11T06:59:43.216Z,55.65
2022-09-11T07:02:10.932Z,55.83
2022-09-11T07:04:38.662Z,56.00
2022-09-11T07:07:06.091Z,55.59
2022-09-11T07:09:35.139Z,55.69
2022-09-11T07:12:02.505Z,54.97
2022-09-11T07:14:31.296Z,56.03
2022-09-11T07:17:08.493Z,54.37
2022-09-11T07:19:35.786Z,53.66
2022-09-11T07:22:03.524Z,53.16
2022-09-11T07:24:33.582Z,52.98
2022-09-11T07:27:00.933Z,52.69
2022-09-11T07:29:35.317Z,51.64
2022-09-11T07:32:02.590Z,50.20
2022-09-11T07:34:29.659Z,50.83
2022-09-11T07:36:59.016Z,49.75
2022-09-11T07:39:27.290Z,49.14
2022-09-11T07:42:04.642Z,48.97
2022-09-11T07:44:34.595Z,48.87
2022-09-11T07:47:02.480Z,48.80
2022-09-11T07:49:32.795Z,48.80
2022-09-11T07:52:00.027Z,49.56
2022-09-11T07:54:36.759Z,48.96
2022-09-11T07:57:05.756Z,49.63
2022-09-11T07:59:32.912Z,49.23
2022-09-11T08:02:00.235Z,48.77
2022-09-11T08:04:28.931Z,47.69
2022-09-11T08:06:57.248Z,48.68
2022-09-11T08:09:29.826Z,48.43
2022-09-11T08:12:00.015Z,47.63
2022-09-11T08:14:27.882Z,47.65
2022-09-11T08:17:01.554Z,48.09
2022-09-11T08:19:30.568Z,48.44
2022-09-11T08:22:01.555Z,46.66
2022-09-11T08:24:33.973Z,46.46
2022-09-11T08:27:06.950Z,46.09
2022-09-11T08:29:37.856Z,46.05
2022-09-11T08:32:06.569Z,45.93
2022-09-11T08:34:34.172Z,45.31
2022-09-11T08:37:01.296Z,45.68
2022-09-11T08:39:32.393Z,46.04
2022-09-11T08:42:09.540Z,45.94
2022-09-11T08:44:58.885Z,45.81
2022-09-11T08:47:50.435Z,46.44
2022-09-11T08:50:33.408Z,46.44
2022-09-11T08:53:03.111Z,46.44
2022-09-11T08:55:39.526Z,46.35
2022-09-11T08:58:22.433Z,45.93
2022-09-11T09:01:04.830Z,45.95
2022-09-11T09:03:49.217Z,45.83
2022-09-11T09:06:43.243Z,44.99
2022-09-11T09:09:25.504Z,44.58
2022-09-11T09:12:16.291Z,44.68
2022-09-11T09:15:08.027Z,44.51
2022-09-11T09:17:43.814Z,44.60
2022-09-11T09:20:26.269Z,42.72
2022-09-11T09:23:04.146Z,43.22
2022-09-11T09:25:36.721Z,42.33
2022-09-11T09:28:43.824Z,43.19
2022-09-11T09:31:16.115Z,42.31
2022-09-11T09:33:52.795Z,42.49
2022-09-11T09:36:29.636Z,42.05
2022-09-11T09:38:58.440Z,41.59
2022-09-11T09:41:54.274Z,41.24
2022-09-11T09:44:46.499Z,41.76
2022-09-11T09:47:14.602Z,42.29
2022-09-11T09:49:43.437Z,41.23
2022-09-11T09:52:15.247Z,41.85
2022-09-11T09:54:43.935Z,41.37
2022-09-11T09:57:11.999Z,41.16
2022-09-11T09:59:47.813Z,40.93
2022-09-11T10:02:45.457Z,41.51
2022-09-11T10:05:19.710Z,41.69
2022-09-11T10:07:58.056Z,41.82
2022-09-11T10:10:29.866Z,41.32
2022-09-11T10:13:18.699Z,40.70
2022-09-11T10:15:50.142Z,41.48
2022-09-11T10:18:24.421Z,42.04
2022-09-11T10:20:51.953Z,41.88
2022-09-11T10:23:27.550Z,42.05
2022-09-11T10:25:54.832Z,41.68
2022-09-11T10:28:33.305Z,42.02
2022-09-11T10:31:04.926Z,42.56
2022-09-11T10:33:36.286Z,42.90
2022-09-11T10:36:06.748Z,43.14
2022-09-11T10:38:41.432Z,41.85
2022-09-11T10:41:14.840Z,41.58
2022-09-11T10:44:04.169Z,41.71
2022-09-11T10:46:40.001Z,41.41
2022-09-11T10:49:21.172Z,42.11
2022-09-11T10:52:19.234Z,41.73
2022-09-11T10:55:07.643Z,42.32
2022-09-11T10:57:47.562Z,41.47
2022-09-11T11:00:15.419Z,41.45
2022-09-11T11:02:50.249Z,41.94
2022-09-11T11:05:30.384Z,41.37
2022-09-11T11:08:27.582Z,41.70
2022-09-11T11:11:15.590Z,42.14
2022-09-11T11:13:56.847Z,41.47
2022-09-11T11:16:45.741Z,41.58
2022-09-11T11:19:49.536Z,41.45
2022-09-11T11:22:16.577Z,42.16
2022-09-11T11:25:07.471Z,41.27
2022-09-11T11:27:44.915Z,41.99
2022-09-11T11:30:21.194Z,41.78
2022-09-11T11:32:57.137Z,42.31
2022-09-11T11:35:28.563Z,42.24
2022-09-11T11:38:03.444Z,42.21
2022-09-11T11:40:41.286Z,42.14
2022-09-11T11:43:13.954Z,42.76
2022-09-11T11:45:47.599Z,42.21
2022-09-11T11:48:29.370Z,41.71
2022-09-11T11:51:10.532Z,42.69
2022-09-11T11:53:55.372Z,42.09
2022-09-11T11:56:37.593Z,42.16
2022-09-11T11:59:14.664Z,42.01
2022-09-11T12:02:00.140Z,42.42
2022-09-11T12:04:45.006Z,42.75
2022-09-11T12:07:33.744Z,43.02
2022-09-11T12:10:03.043Z,42.44
2022-09-11T12:12:36.014Z,42.70
2022-09-11T12:15:08.892Z,42.52
2022-09-11T12:17:40.300Z,41.93
2022-09-11T12:20:13.470Z,42.37
2022-09-11T12:22:49.133Z,42.93
2022-09-11T12:25:38.173Z,42.71
2022-09-11T12:28:25.377Z,42.35
2022-09-11T12:31:06.211Z,42.46
2022-09-11T12:33:48.514Z,42.39
2022-09-11T12:36:17.048Z,42.46
2022-09-11T12:38:50.323Z,42.35
2022-09-11T12:41:27.155Z,42.27
2022-09-11T12:43:55.200Z,41.52
2022-09-11T12:46:22.261Z,41.78
2022-09-11T12:49:18.083Z,42.17
2022-09-11T12:51:50.131Z,41.34
2022-09-11T12:54:21.985Z,41.59
2022-09-11T12:56:53.753Z,41.69
2022-09-11T12:59:25.957Z,41.95
2022-09-11T13:01:54.072Z,42.00
2022-09-11T13:04:28.440Z,41.46
2022-09-11T13:07:04.153Z,41.45
2022-09-11T13:09:47.088Z,41.64
2022-09-11T13:12:26.472Z,42.88
2022-09-11T13:14:58.141Z,41.95
2022-09-11T13:17:30.998Z,42.34
2022-09-11T13:20:22.940Z,41.79
2022-09-11T13:22:58.157Z,41.86
2022-09-11T13:25:28.184Z,42.52
2022-09-11T13:27:59.865Z,42.20
2022-09-11T13:30:27.557Z,42.66
2022-09-11T13:33:07.250Z,42.47
2022-09-11T13:35:40.377Z,42.21
2022-09-11T13:38:18.551Z,42.89
2022-09-11T13:40:58.095Z,42.68
2022-09-11T13:43:31.000Z,41.88
2022-09-11T13:46:34.917Z,42.24
2022-09-11T13:49:11.079Z,42.57
2022-09-11T13:51:43.908Z,42.20
2022-09-11T13:54:31.129Z,42.27
2022-09-11T13:56:58.316Z,42.09
2022-09-11T13:59:35.256Z,42.77
2022-09-11T14:02:19.255Z,42.52
2022-09-11T14:04:47.603Z,42.06
2022-09-11T14:07:26.611Z,42.29
2022-09-11T14:10:05.004Z,42.13
2022-09-11T14:12:35.213Z,42.62
2022-09-11T14:15:18.507Z,42.60
2022-09-11T14:17:45.854Z,42.92
2022-09-11T14:20:23.230Z,42.83
2022-09-11T14:22:55.777Z,43.32
2022-09-11T14:25:24.087Z,43.36
2022-09-11T14:27:51.428Z,43.11
2022-09-11T14:30:37.684Z,43.23
2022-09-11T14:33:23.972Z,43.04
2022-09-11T14:35:54.102Z,42.90
2022-09-11T14:38:23.477Z,44.57
2022-09-11T14:40:58.657Z,44.81
2022-09-11T14:43:32.631Z,44.00
2022-09-11T14:46:04.859Z,44.95
2022-09-11T14:48:34.855Z,44.19
2022-09-11T14:51:09.864Z,45.33
2022-09-11T14:53:43.235Z,45.34
2022-09-11T14:56:11.076Z,44.84
2022-09-11T14:58:38.742Z,44.59
2022-09-11T15:01:06.130Z,44.63
2022-09-11T15:03:33.374Z,45.93
2022-09-11T15:06:00.931Z,45.43
2022-09-11T15:08:28.134Z,45.17
2022-09-11T15:10:55.401Z,45.02
2022-09-11T15:13:23.003Z,45.68
2022-09-11T15:15:52.116Z,45.40
2022-09-11T15:18:19.658Z,45.81
2022-09-11T15:20:47.329Z,46.39
2022-09-11T15:23:16.091Z,46.43
2022-09-11T15:25:43.684Z,45.67
2022-09-11T15:28:10.886Z,46.36
2022-09-11T15:30:38.700Z,46.01
2022-09-11T15:33:06.106Z,46.71
2022-09-11T15:35:33.582Z,46.98
2022-09-11T15:38:01.036Z,47.68
2022-09-11T15:40:29.334Z,46.76
2022-09-11T15:42:57.069Z,46.79
2022-09-11T15:45:24.523Z,46.75
2022-09-11T15:47:51.694Z,46.64
2022-09-11T15:50:24.662Z,46.79
2022-09-11T15:52:51.871Z,47.74
2022-09-11T15:55:19.141Z,47.58
2022-09-11T15:57:46.310Z,48.45
2022-09-11T16:00:14.710Z,49.17
2022-09-11T16:02:43.122Z,48.41
2022-09-11T16:05:10.626Z,48.12
2022-09-11T16:07:38.061Z,48.32
2022-09-11T16:10:05.716Z,48.61
2022-09-11T16:12:34.763Z,48.32
2022-09-11T16:15:02.442Z,48.73
2022-09-11T16:17:32.489Z,49.02
2022-09-11T16:20:00.229Z,49.22
2022-09-11T16:22:31.429Z,50.33
2022-09-11T16:24:59.572Z,50.66
2022-09-11T16:27:27.183Z,50.95
2022-09-11T16:30:39.313Z,51.65
2022-09-11T16:32:42.125Z,51.12
2022-09-11T16:35:13.697Z,51.64
2022-09-11T16:37:41.606Z,50.41
2022-09-11T16:40:10.046Z,52.19
2022-09-11T16:42:38.252Z,52.84
2022-09-11T16:45:05.887Z,51.65
2022-09-11T16:47:33.454Z,52.79
2022-09-11T16:50:07.427Z,52.84
2022-09-11T16:52:35.614Z,52.16
2022-09-11T16:55:04.334Z,51.52
2022-09-11T16:57:32.612Z,50.80
2022-09-11T17:00:00.110Z,50.21
2022-09-11T17:02:27.778Z,50.42
2022-09-11T17:04:55.047Z,51.40
2022-09-11T17:07:23.820Z,51.63
2022-09-11T17:09:50.975Z,51.50
2022-09-11T17:12:18.315Z,50.64
2022-09-11T17:14:45.574Z,52.37
2022-09-11T17:17:13.018Z,52.49
2022-09-11T17:19:40.500Z,53.13
2022-09-11T17:22:08.716Z,53.27
2022-09-11T17:24:36.494Z,52.88
2022-09-11T17:27:03.930Z,52.71
2022-09-11T17:29:34.506Z,51.78
2022-09-11T17:32:26.223Z,51.73
2022-09-11T17:34:49.681Z,51.99
2022-09-11T17:37:17.658Z,51.55
2022-09-11T17:39:45.295Z,51.61
2022-09-11T17:42:13.593Z,51.37
2022-09-11T17:44:41.566Z,51.46
2022-09-11T17:47:09.483Z,52.06
2022-09-11T17:49:37.093Z,52.11
2022-09-11T17:52:04.537Z,51.81
2022-09-11T17:54:31.801Z,52.16
2022-09-11T17:56:59.347Z,52.47
2022-09-11T17:59:26.848Z,52.29
2022-09-11T18:01:54.327Z,52.88
2022-09-11T18:04:22.505Z,53.36
2022-09-11T18:06:51.454Z,53.18
2022-09-11T18:09:20.165Z,54.10
2022-09-11T18:11:50.288Z,54.36
2022-09-11T18:14:19.063Z,54.08
2022-09-11T18:16:47.941Z,54.40
2022-09-11T18:19:17.937Z,55.94
2022-09-11T18:21:49.372Z,55.76
2022-09-11T18:24:21.846Z,55.06
2022-09-11T18:26:57.368Z,54.77
2022-09-11T18:29:27.619Z,54.33
2022-09-11T18:31:55.074Z,54.30
2022-09-11T18:34:25.001Z,53.80
2022-09-11T18:36:52.639Z,54.01
2022-09-11T18:39:21.325Z,54.44
2022-09-11T18:41:50.437Z,53.74
2022-09-11T18:44:20.421Z,54.65
2022-09-11T18:46:48.608Z,55.12
2022-09-11T18:49:16.502Z,56.01
2022-09-11T18:51:44.578Z,56.11
2022-09-11T18:54:15.150Z,55.88
2022-09-11T18:56:43.401Z,56.54
2022-09-11T18:59:12.078Z,55.51
2022-09-11T19:01:40.278Z,56.29
2022-09-11T19:04:10.382Z,56.16
2022-09-11T19:06:41.317Z,56.02
2022-09-11T19:09:13.507Z,55.42
2022-09-11T19:11:41.801Z,55.36
2022-09-11T19:14:11.445Z,55.58
2022-09-11T19:16:39.714Z,55.83
2022-09-11T19:19:07.622Z,56.04
2022-09-11T19:21:35.359Z,56.02
2022-09-11T19:24:03.025Z,55.96
2022-09-11T19:26:32.656Z,56.05
2022-09-11T19:29:00.542Z,55.30
2022-09-11T19:31:29.888Z,55.53
2022-09-11T19:34:00.918Z,55.39
2022-09-11T19:36:30.453Z,55.55
2022-09-11T19:39:00.431Z,55.45
2022-09-11T19:41:31.316Z,55.94
2022-09-11T19:44:02.775Z,55.68
2022-09-11T19:46:32.255Z,55.57
2022-09-11T19:49:06.428Z,56.16
2022-09-11T19:51:36.938Z,55.56
2022-09-11T19:54:05.210Z,55.78
2022-09-11T19:56:34.767Z,55.86
2022-09-11T19:59:02.388Z,55.90
2022-09-11T20:01:30.666Z,56.15
2022-09-11T20:04:00.380Z,56.40
2022-09-11T20:06:30.994Z,56.28
2022-09-11T20:09:26.826Z,56.09
2022-09-11T20:11:46.903Z,56.16
2022-09-11T20:14:14.212Z,55.69
2022-09-11T20:16:41.727Z,55.60
2022-09-11T20:19:12.772Z,55.78
2022-09-11T20:21:39.961Z,56.22
2022-09-11T20:24:07.428Z,56.57
2022-09-11T20:26:35.666Z,56.26
2022-09-11T20:29:08.519Z,56.46
2022-09-11T20:31:46.299Z,56.16
2022-09-11T20:34:15.465Z,56.22
2022-09-11T20:36:42.693Z,56.26
2022-09-11T20:39:12.290Z,56.07
2022-09-11T20:41:39.413Z,55.97
2022-09-11T20:44:06.486Z,56.41
2022-09-11T20:46:33.702Z,56.06
2022-09-11T20:49:01.148Z,55.88
2022-09-11T20:51:28.793Z,55.97
2022-09-11T20:53:56.281Z,56.27
2022-09-11T20:56:24.134Z,56.63
2022-09-11T20:58:52.461Z,56.34
2022-09-11T21:01:24.450Z,56.02
2022-09-11T21:03:54.047Z,56.54
2022-09-11T21:06:25.886Z,56.21
2022-09-11T21:08:58.912Z,56.41
2022-09-11T21:11:28.028Z,57.01
2022-09-11T21:13:55.257Z,57.09
2022-09-11T21:16:22.847Z,56.89
2022-09-11T21:18:56.082Z,57.02
2022-09-11T21:21:27.969Z,57.54
2022-09-11T21:24:01.311Z,57.50
2022-09-11T21:26:29.297Z,57.05
2022-09-11T21:29:01.928Z,57.03
2022-09-11T21:31:30.197Z,57.35
2022-09-11T21:33:57.679Z,57.03
2022-09-11T21:36:26.628Z,56.86
2022-09-11T21:38:54.670Z,57.30
2022-09-11T21:41:21.833Z,57.56
2022-09-11T21:43:49.351Z,56.74
2022-09-11T21:46:16.566Z,57.00
2022-09-11T21:48:43.776Z,57.63
2022-09-11T21:51:14.243Z,57.00
2022-09-11T21:53:46.391Z,57.50
2022-09-11T21:56:24.967Z,57.23
2022-09-11T21:58:53.151Z,57.11
2022-09-11T22:01:25.137Z,57.85
2022-09-11T22:03:52.803Z,58.02
2022-09-11T22:06:21.576Z,57.98
2022-09-11T22:08:48.656Z,58.16
2022-09-11T22:11:16.240Z,58.16
2022-09-11T22:13:43.841Z,58.58
2022-09-11T22:16:14.081Z,57.92
2022-09-11T22:18:41.838Z,58.83
2022-09-11T22:21:10.453Z,58.76
2022-09-11T22:23:37.984Z,59.53
2022-09-11T22:26:08.566Z,59.57
2022-09-11T22:28:37.345Z,60.09
2022-09-11T22:31:16.500Z,60.08
2022-09-11T22:33:44.136Z,59.55
2022-09-11T22:36:15.165Z,59.01
2022-09-11T22:38:45.809Z,59.76
2022-09-11T22:41:13.123Z,60.16
2022-09-11T22:43:40.360Z,60.77
2022-09-11T22:46:10.522Z,60.82
2022-09-11T22:48:37.684Z,60.37
2022-09-11T22:51:05.067Z,61.07
2022-09-11T22:53:32.555Z,60.81
2022-09-11T22:55:59.834Z,60.93
2022-09-11T22:58:29.176Z,61.14
2022-09-11T23:00:57.358Z,60.76
2022-09-11T23:03:24.529Z,60.44
2022-09-11T23:06:14.831Z,60.44
2022-09-11T23:08:42.368Z,60.84
2022-09-11T23:11:14.048Z,60.61
2022-09-11T23:13:42.909Z,61.47
2022-09-11T23:16:15.775Z,62.17
2022-09-11T23:18:43.288Z,61.48
2022-09-11T23:21:11.134Z,61.37
2022-09-11T23:23:42.473Z,61.68
2022-09-11T23:26:11.987Z,62.33
2022-09-11T23:28:39.695Z,63.65
2022-09-11T23:31:22.021Z,65.32
2022-09-11T23:33:49.135Z,65.89
2022-09-11T23:36:16.339Z,67.14
2022-09-11T23:38:45.692Z,67.57
2022-09-11T23:41:13.784Z,67.86
2022-09-11T23:43:41.655Z,68.61
2022-09-11T23:46:09.602Z,70.00
2022-09-11T23:48:37.081Z,70.59
2022-09-11T23:51:04.499Z,70.25
2022-09-11T23:53:32.137Z,70.00
2022-09-11T23:55:59.267Z,70.29
2022-09-11T23:58:26.695Z,70.55
